createdAt,value
2017-11-30T00:00:45.203Z,86.44
2017-11-30T00:01:55.726Z,86.91
2017-11-30T00:03:06.009Z,86.82
2017-11-30T00:04:15.377Z,86.91
2017-11-30T00:05:26.224Z,86.82
2017-11-30T00:06:37.604Z,86.54
2017-11-30T00:07:47.968Z,86.72
2017-11-30T00:08:57.656Z,87.01
2017-11-30T00:10:08.027Z,86.72
2017-11-30T00:11:18.387Z,86.82
2017-11-30T00:12:28.893Z,86.72
2017-11-30T00:13:39.664Z,87.01
2017-11-30T00:14:50.051Z,86.91
2017-11-30T00:16:00.817Z,87.01
2017-11-30T00:17:14.119Z,86.63
2017-11-30T00:18:24.892Z,87.01
2017-11-30T00:19:35.601Z,86.63
2017-11-30T00:20:45.711Z,86.82
2017-11-30T00:21:56.011Z,86.82
2017-11-30T00:23:06.598Z,86.91
2017-11-30T00:24:16.633Z,86.91
2017-11-30T00:25:27.219Z,86.91
2017-11-30T00:26:39.176Z,87.2
2017-11-30T00:27:49.341Z,86.72
2017-11-30T00:29:00.217Z,86.91
2017-11-30T00:30:10.278Z,86.82
2017-11-30T00:31:20.641Z,86.63
2017-11-30T00:32:31.427Z,87.11
2017-11-30T00:33:42.017Z,86.82
2017-11-30T00:34:52.369Z,87.49
2017-11-30T00:36:02.122Z,86.91
2017-11-30T00:37:12.441Z,87.49
2017-11-30T00:38:22.914Z,87.3
2017-11-30T00:39:33.509Z,87.49
2017-11-30T00:40:43.605Z,87.49
2017-11-30T00:41:54.132Z,87.49
2017-11-30T00:43:04.685Z,87.39
2017-11-30T00:44:14.752Z,87.49
2017-11-30T00:45:24.806Z,87.58
2017-11-30T00:46:34.829Z,87.2
2017-11-30T00:47:45.131Z,87.2
2017-11-30T00:48:55.660Z,86.91
2017-11-30T00:50:05.780Z,87.3
2017-11-30T00:51:16.120Z,88.34
2017-11-30T00:52:26.426Z,87.87
2017-11-30T00:53:36.742Z,87.87
2017-11-30T00:54:47.764Z,87.87
2017-11-30T00:55:58.136Z,87.96
2017-11-30T00:57:08.878Z,87.77
2017-11-30T00:58:19.169Z,87.68
2017-11-30T00:59:29.284Z,87.58
2017-11-30T01:00:39.834Z,87.96
2017-11-30T01:01:49.984Z,87.77
2017-11-30T01:02:59.735Z,88.15
2017-11-30T01:04:09.848Z,88.15
2017-11-30T01:05:20.907Z,88.15
2017-11-30T01:06:31.704Z,87.49
2017-11-30T01:07:42.112Z,87.01
2017-11-30T01:08:52.610Z,87.3
2017-11-30T01:10:03.179Z,87.49
2017-11-30T01:11:13.702Z,87.49
2017-11-30T01:12:24.468Z,87.2
2017-11-30T01:13:35.381Z,87.39
2017-11-30T01:14:45.387Z,87.2
2017-11-30T01:15:55.919Z,86.91
2017-11-30T01:17:06.312Z,87.58
2017-11-30T01:18:16.374Z,88.15
2017-11-30T01:19:27.062Z,87.96
2017-11-30T01:20:37.550Z,87.68
2017-11-30T01:21:48.187Z,87.96
2017-11-30T01:22:58.534Z,87.77
2017-11-30T01:24:09.025Z,87.87
2017-11-30T01:25:20.214Z,87.96
2017-11-30T01:26:30.833Z,87.73
2017-11-30T01:27:41.526Z,87.63
2017-11-30T01:28:51.800Z,87.92
2017-11-30T01:30:02.377Z,87.82
2017-11-30T01:31:12.634Z,87.82
2017-11-30T01:32:23.810Z,87.82
2017-11-30T01:33:33.884Z,87.82
2017-11-30T01:34:43.626Z,87.82
2017-11-30T01:35:54.238Z,87.63
2017-11-30T01:37:04.153Z,87.54
2017-11-30T01:38:14.452Z,87.82
2017-11-30T01:39:24.748Z,87.92
2017-11-30T01:40:35.030Z,87.92
2017-11-30T01:41:45.329Z,87.82
2017-11-30T01:42:55.652Z,88.1
2017-11-30T01:44:05.656Z,87.92
2017-11-30T01:45:16.168Z,88.48
2017-11-30T01:46:26.284Z,88.48
2017-11-30T01:47:36.624Z,88.39
2017-11-30T01:48:47.568Z,88.48
2017-11-30T01:49:57.992Z,88.1
2017-11-30T01:51:08.278Z,88.1
2017-11-30T01:52:18.612Z,88.29
2017-11-30T01:53:29.337Z,88.68
2017-11-30T01:54:40.470Z,88.29
2017-11-30T01:55:51.012Z,88.96
2017-11-30T01:57:02.306Z,88.39
2017-11-30T01:58:12.821Z,87.82
2017-11-30T01:59:23.240Z,88.96
2017-11-30T02:00:33.655Z,88.1
2017-11-30T02:01:44.202Z,88.77
2017-11-30T02:02:54.844Z,88.2
2017-11-30T02:04:05.127Z,88.2
2017-11-30T02:05:15.606Z,88.48
2017-11-30T02:06:25.614Z,88.29
2017-11-30T02:07:36.547Z,88.2
2017-11-30T02:08:47.492Z,88.29
2017-11-30T02:09:58.014Z,88.39
2017-11-30T02:11:08.728Z,89.06
2017-11-30T02:12:19.389Z,88.73
2017-11-30T02:13:30.310Z,88.82
2017-11-30T02:14:40.408Z,88.54
2017-11-30T02:15:50.226Z,89.11
2017-11-30T02:17:00.517Z,89.01
2017-11-30T02:18:10.821Z,89.39
2017-11-30T02:19:21.345Z,89.01
2017-11-30T02:20:31.727Z,89.01
2017-11-30T02:21:41.826Z,88.73
2017-11-30T02:22:52.109Z,88.92
2017-11-30T02:24:02.839Z,88.73
2017-11-30T02:25:13.132Z,89.01
2017-11-30T02:26:23.417Z,89.01
2017-11-30T02:27:33.535Z,88.92
2017-11-30T02:28:43.847Z,88.73
2017-11-30T02:29:53.849Z,88.77
2017-11-30T02:31:04.463Z,89.25
2017-11-30T02:32:14.748Z,88.77
2017-11-30T02:33:25.077Z,88.77
2017-11-30T02:34:35.622Z,88.29
2017-11-30T02:35:47.823Z,88.96
2017-11-30T02:36:58.373Z,88.48
2017-11-30T02:38:09.153Z,88.48
2017-11-30T02:39:19.529Z,88.29
2017-11-30T02:40:29.599Z,88.29
2017-11-30T02:41:40.145Z,88.29
2017-11-30T02:42:50.726Z,88.1
2017-11-30T02:44:00.760Z,88.87
2017-11-30T02:45:11.586Z,87.82
2017-11-30T02:46:22.099Z,87.73
2017-11-30T02:47:32.867Z,88.2
2017-11-30T02:48:43.237Z,88.29
2017-11-30T02:49:53.329Z,88.48
2017-11-30T02:51:03.634Z,88.29
2017-11-30T02:52:14.068Z,88.1
2017-11-30T02:53:24.393Z,88.29
2017-11-30T02:54:35.120Z,88.58
2017-11-30T02:55:45.696Z,88.39
2017-11-30T02:56:56.200Z,88.1
2017-11-30T02:58:06.765Z,87.92
2017-11-30T02:59:16.725Z,87.73
2017-11-30T03:00:27.051Z,87.73
2017-11-30T03:01:37.692Z,87.82
2017-11-30T03:02:47.782Z,87.73
2017-11-30T03:03:58.244Z,87.63
2017-11-30T03:05:08.498Z,87.82
2017-11-30T03:06:19.240Z,87.82
2017-11-30T03:07:29.928Z,87.92
2017-11-30T03:08:40.460Z,87.82
2017-11-30T03:09:50.589Z,87.92
2017-11-30T03:11:01.433Z,87.82
2017-11-30T03:12:12.119Z,87.92
2017-11-30T03:13:22.386Z,87.54
2017-11-30T03:14:32.852Z,87.54
2017-11-30T03:15:43.132Z,87.54
2017-11-30T03:16:53.886Z,87.92
2017-11-30T03:18:04.236Z,88.01
2017-11-30T03:19:15.789Z,87.92
2017-11-30T03:20:26.130Z,88.1
2017-11-30T03:21:36.365Z,87.92
2017-11-30T03:22:46.653Z,87.82
2017-11-30T03:23:56.742Z,87.82
2017-11-30T03:25:06.771Z,87.63
2017-11-30T03:26:16.819Z,87.16
2017-11-30T03:27:26.857Z,87.16
2017-11-30T03:28:37.333Z,87.45
2017-11-30T03:29:47.350Z,87.45
2017-11-30T03:30:57.660Z,87.45
2017-11-30T03:32:08.203Z,87.16
2017-11-30T03:33:19.391Z,87.16
2017-11-30T03:34:29.786Z,87.16
2017-11-30T03:35:39.845Z,87.06
2017-11-30T03:36:50.127Z,87.35
2017-11-30T03:38:00.884Z,87.06
2017-11-30T03:39:11.155Z,87.16
2017-11-30T03:40:23.297Z,87.25
2017-11-30T03:41:34.022Z,87.16
2017-11-30T03:42:45.016Z,87.54
2017-11-30T03:43:55.399Z,87.25
2017-11-30T03:45:05.408Z,87.25
2017-11-30T03:46:15.939Z,87.45
2017-11-30T03:47:26.249Z,87.16
2017-11-30T03:48:36.777Z,87.45
2017-11-30T03:49:47.317Z,87.25
2017-11-30T03:50:57.796Z,87.45
2017-11-30T03:52:08.267Z,86.78
2017-11-30T03:53:18.742Z,86.78
2017-11-30T03:54:28.972Z,86.87
2017-11-30T03:55:39.835Z,87.45
2017-11-30T03:56:50.354Z,87.25
2017-11-30T03:58:00.700Z,87.25
2017-11-30T03:59:11.408Z,87.63
2017-11-30T04:00:21.546Z,86.78
2017-11-30T04:01:32.032Z,86.78
2017-11-30T04:02:42.327Z,86.97
2017-11-30T04:03:52.777Z,86.87
2017-11-30T04:05:03.350Z,87.06
2017-11-30T04:06:14.509Z,87.06
2017-11-30T04:07:25.742Z,87.16
2017-11-30T04:08:35.999Z,86.97
2017-11-30T04:09:46.282Z,86.87
2017-11-30T04:10:56.693Z,86.87
2017-11-30T04:12:07.602Z,87.16
2017-11-30T04:13:17.911Z,86.97
2017-11-30T04:14:28.535Z,87.59
2017-11-30T04:15:38.273Z,87.3
2017-11-30T04:16:48.533Z,87.25
2017-11-30T04:17:58.807Z,87.12
2017-11-30T04:19:09.313Z,87.4
2017-11-30T04:20:19.653Z,87.3
2017-11-30T04:21:30.644Z,87.21
2017-11-30T04:22:41.015Z,87.12
2017-11-30T04:23:51.290Z,87.02
2017-11-30T04:25:01.697Z,86.93
2017-11-30T04:26:12.215Z,86.93
2017-11-30T04:27:22.492Z,86.93
2017-11-30T04:28:33.219Z,87.21
2017-11-30T04:29:43.959Z,87.3
2017-11-30T04:30:54.006Z,87.12
2017-11-30T04:32:04.372Z,87.49
2017-11-30T04:33:14.725Z,87.21
2017-11-30T04:34:25.059Z,87.21
2017-11-30T04:35:35.321Z,87.12
2017-11-30T04:36:45.312Z,86.93
2017-11-30T04:37:56.198Z,86.74
2017-11-30T04:39:07.348Z,86.74
2017-11-30T04:40:17.817Z,87.02
2017-11-30T04:41:27.750Z,86.64
2017-11-30T04:42:37.781Z,87.02
2017-11-30T04:43:48.189Z,86.64
2017-11-30T04:44:58.265Z,86.93
2017-11-30T04:46:08.788Z,86.74
2017-11-30T04:47:19.187Z,86.74
2017-11-30T04:48:30.079Z,86.74
2017-11-30T04:49:40.714Z,86.74
2017-11-30T04:50:51.254Z,86.74
2017-11-30T04:52:02.144Z,86.93
2017-11-30T04:53:14.263Z,86.83
2017-11-30T04:54:24.306Z,86.74
2017-11-30T04:55:34.323Z,86.93
2017-11-30T04:56:44.817Z,86.83
2017-11-30T04:57:55.562Z,86.74
2017-11-30T04:59:06.826Z,86.93
2017-11-30T05:00:16.867Z,86.26
2017-11-30T05:01:27.155Z,86.45
2017-11-30T05:02:38.729Z,86.26
2017-11-30T05:03:49.341Z,86.45
2017-11-30T05:04:59.272Z,86.07
2017-11-30T05:06:09.769Z,85.97
2017-11-30T05:07:20.118Z,86.07
2017-11-30T05:08:30.131Z,86.26
2017-11-30T05:09:40.470Z,86.07
2017-11-30T05:10:50.479Z,86.26
2017-11-30T05:12:00.605Z,86.26
2017-11-30T05:13:10.922Z,86.26
2017-11-30T05:14:21.316Z,85.78
2017-11-30T05:15:30.964Z,85.78
2017-11-30T05:16:41.348Z,85.69
2017-11-30T05:17:52.769Z,85.78
2017-11-30T05:19:03.071Z,85.41
2017-11-30T05:20:13.472Z,85.69
2017-11-30T05:21:23.696Z,85.6
2017-11-30T05:22:34.445Z,85.41
2017-11-30T05:23:44.981Z,85.31
2017-11-30T05:24:55.860Z,85.13
2017-11-30T05:26:06.157Z,85.31
2017-11-30T05:27:16.879Z,85.6
2017-11-30T05:28:27.373Z,85.31
2017-11-30T05:29:37.716Z,85.41
2017-11-30T05:30:49.213Z,85.03
2017-11-30T05:31:59.799Z,85.31
2017-11-30T05:33:10.116Z,84.84
2017-11-30T05:34:20.897Z,84.94
2017-11-30T05:35:32.207Z,84.94
2017-11-30T05:36:42.642Z,85.5
2017-11-30T05:37:52.986Z,85.69
2017-11-30T05:39:03.720Z,85.6
2017-11-30T05:40:15.332Z,85.13
2017-11-30T05:41:25.621Z,85.31
2017-11-30T05:42:36.141Z,85.6
2017-11-30T05:43:46.667Z,85.31
2017-11-30T05:44:57.342Z,85.41
2017-11-30T05:46:07.709Z,84.84
2017-11-30T05:47:18.610Z,84.94
2017-11-30T05:48:29.596Z,84.84
2017-11-30T05:49:40.597Z,84.94
2017-11-30T05:50:51.028Z,85.13
2017-11-30T05:52:02.422Z,85.03
2017-11-30T05:53:13.644Z,84.94
2017-11-30T05:54:24.193Z,85.03
2017-11-30T05:55:33.880Z,85.41
2017-11-30T05:56:44.204Z,85.31
2017-11-30T05:57:54.490Z,84.94
2017-11-30T05:59:05.420Z,84.65
2017-11-30T06:00:15.960Z,85.03
2017-11-30T06:01:26.425Z,84.94
2017-11-30T06:02:36.716Z,84.46
2017-11-30T06:03:46.452Z,84.65
2017-11-30T06:04:56.788Z,84.46
2017-11-30T06:06:07.127Z,84.65
2017-11-30T06:07:17.465Z,84.65
2017-11-30T06:08:27.837Z,84.36
2017-11-30T06:09:37.941Z,84.84
2017-11-30T06:10:48.255Z,84.84
2017-11-30T06:11:58.812Z,84.94
2017-11-30T06:13:10.073Z,84.84
2017-11-30T06:14:20.451Z,85.03
2017-11-30T06:15:30.786Z,85.22
2017-11-30T06:16:40.902Z,84.94
2017-11-30T06:17:51.986Z,84.74
2017-11-30T06:19:02.686Z,85.41
2017-11-30T06:20:13.024Z,85.13
2017-11-30T06:21:23.510Z,84.74
2017-11-30T06:22:33.522Z,84.74
2017-11-30T06:23:43.830Z,85.03
2017-11-30T06:24:53.957Z,85.22
2017-11-30T06:26:04.596Z,85.03
2017-11-30T06:27:14.890Z,84.94
2017-11-30T06:28:25.177Z,85.13
2017-11-30T06:29:35.217Z,84.94
2017-11-30T06:30:48.597Z,84.84
2017-11-30T06:31:59.791Z,85.03
2017-11-30T06:33:10.337Z,85.31
2017-11-30T06:34:20.604Z,85.22
2017-11-30T06:35:31.268Z,85.03
2017-11-30T06:36:42.012Z,85.22
2017-11-30T06:37:52.200Z,84.84
2017-11-30T06:39:02.145Z,85.41
2017-11-30T06:40:12.659Z,85.41
2017-11-30T06:41:23.000Z,85.41
2017-11-30T06:42:34.075Z,85.6
2017-11-30T06:43:44.647Z,85.6
2017-11-30T06:44:55.467Z,85.78
2017-11-30T06:46:05.786Z,85.69
2017-11-30T06:47:15.758Z,85.6
2017-11-30T06:48:26.281Z,86.07
2017-11-30T06:49:38.320Z,85.78
2017-11-30T06:50:48.668Z,85.97
2017-11-30T06:51:59.009Z,85.78
2017-11-30T06:53:09.339Z,86.35
2017-11-30T06:54:19.356Z,86.16
2017-11-30T06:55:29.907Z,85.88
2017-11-30T06:56:40.421Z,85.69
2017-11-30T06:57:50.957Z,86.45
2017-11-30T06:59:01.229Z,85.97
2017-11-30T07:00:11.719Z,85.97
2017-11-30T07:01:22.374Z,85.31
2017-11-30T07:02:32.659Z,85.78
2017-11-30T07:03:43.240Z,86.07
2017-11-30T07:04:53.549Z,85.88
2017-11-30T07:06:03.828Z,85.69
2017-11-30T07:07:14.162Z,85.69
2017-11-30T07:08:24.511Z,85.88
2017-11-30T07:09:34.809Z,85.97
2017-11-30T07:10:45.190Z,85.69
2017-11-30T07:11:55.487Z,85.5
2017-11-30T07:13:05.799Z,85.69
2017-11-30T07:14:16.096Z,85.6
2017-11-30T07:15:26.536Z,85.22
2017-11-30T07:16:36.871Z,85.6
2017-11-30T07:17:47.206Z,85.5
2017-11-30T07:18:57.542Z,85.6
2017-11-30T07:20:07.613Z,85.6
2017-11-30T07:21:17.924Z,85.78
2017-11-30T07:22:28.299Z,85.69
2017-11-30T07:23:38.589Z,85.78
2017-11-30T07:24:48.486Z,85.5
2017-11-30T07:25:58.771Z,85.31
2017-11-30T07:27:08.803Z,85.41
2017-11-30T07:28:18.891Z,85.41
2017-11-30T07:29:28.898Z,85.5
2017-11-30T07:30:38.809Z,85.6
2017-11-30T07:31:49.198Z,85.69
2017-11-30T07:32:59.549Z,85.97
2017-11-30T07:34:09.865Z,85.69
2017-11-30T07:35:20.226Z,86.16
2017-11-30T07:36:30.225Z,85.88
2017-11-30T07:37:40.144Z,86.07
2017-11-30T07:38:50.186Z,85.78
2017-11-30T07:40:00.714Z,86.07
2017-11-30T07:41:11.053Z,85.5
2017-11-30T07:42:21.184Z,85.78
2017-11-30T07:43:31.503Z,86.16
2017-11-30T07:44:41.608Z,85.6
2017-11-30T07:45:51.925Z,85.83
2017-11-30T07:47:02.269Z,85.93
2017-11-30T07:48:12.269Z,85.83
2017-11-30T07:49:21.968Z,85.45
2017-11-30T07:50:32.287Z,85.55
2017-11-30T07:51:42.576Z,85.55
2017-11-30T07:52:52.551Z,85.17
2017-11-30T07:54:02.886Z,84.98
2017-11-30T07:55:13.172Z,85.26
2017-11-30T07:56:23.460Z,85.07
2017-11-30T07:57:33.503Z,84.78
2017-11-30T07:58:43.511Z,84.98
2017-11-30T07:59:54.280Z,84.59
2017-11-30T08:01:04.729Z,84.69
2017-11-30T08:02:15.017Z,84.22
2017-11-30T08:03:24.761Z,84.12
2017-11-30T08:04:35.080Z,84.5
2017-11-30T08:05:45.094Z,83.94
2017-11-30T08:07:27.244Z,84.41
2017-11-30T08:08:37.603Z,84.12
2017-11-30T08:09:47.895Z,84.03
2017-11-30T08:10:58.187Z,84.12
2017-11-30T08:12:08.566Z,84.31
2017-11-30T08:13:18.853Z,84.17
2017-11-30T08:14:29.159Z,84.12
2017-11-30T08:15:39.215Z,84.22
2017-11-30T08:16:49.511Z,84.26
2017-11-30T08:17:59.731Z,83.4
2017-11-30T08:19:09.661Z,83.55
2017-11-30T08:20:20.215Z,83.74
2017-11-30T08:21:30.560Z,83.55
2017-11-30T08:22:40.864Z,83.88
2017-11-30T08:23:51.240Z,83.55
2017-11-30T08:25:01.567Z,83.59
2017-11-30T08:26:11.877Z,83.55
2017-11-30T08:27:22.184Z,83.31
2017-11-30T08:28:32.498Z,83.27
2017-11-30T08:29:42.530Z,83.31
2017-11-30T08:30:52.917Z,83.65
2017-11-30T08:32:03.447Z,83.08
2017-11-30T08:33:13.902Z,83.08
2017-11-30T08:34:24.233Z,83.27
2017-11-30T08:35:34.579Z,83.08
2017-11-30T08:36:44.492Z,83.08
2017-11-30T08:37:54.525Z,82.98
2017-11-30T08:39:04.834Z,83.46
2017-11-30T08:40:14.946Z,83.03
2017-11-30T08:41:25.278Z,82.98
2017-11-30T08:42:35.682Z,83.08
2017-11-30T08:43:45.973Z,83.17
2017-11-30T08:44:55.931Z,82.51
2017-11-30T08:46:06.390Z,82.79
2017-11-30T08:47:16.720Z,82.89
2017-11-30T08:48:26.733Z,82.7
2017-11-30T08:49:36.655Z,82.7
2017-11-30T08:50:46.955Z,82.7
2017-11-30T08:51:56.981Z,83.08
2017-11-30T08:53:06.899Z,82.98
2017-11-30T08:54:16.717Z,83.27
2017-11-30T08:55:27.100Z,83.36
2017-11-30T08:56:37.411Z,83.27
2017-11-30T08:57:47.736Z,83.55
2017-11-30T08:58:58.042Z,83.08
2017-11-30T09:00:07.702Z,83.36
2017-11-30T09:01:18.014Z,83.17
2017-11-30T09:02:28.523Z,83.27
2017-11-30T09:03:38.845Z,83.27
2017-11-30T09:04:48.825Z,83.08
2017-11-30T09:05:58.851Z,83.5
2017-11-30T09:07:09.208Z,82.93
2017-11-30T09:08:19.283Z,82.79
2017-11-30T09:09:29.598Z,82.74
2017-11-30T09:10:39.900Z,82.65
2017-11-30T09:11:50.021Z,82.74
2017-11-30T09:13:00.707Z,82.74
2017-11-30T09:14:10.818Z,82.55
2017-11-30T09:15:21.102Z,82.84
2017-11-30T09:16:45.656Z,82.84
2017-11-30T09:17:55.971Z,83.03
2017-11-30T09:19:06.349Z,82.74
2017-11-30T09:20:16.674Z,83.03
2017-11-30T09:21:27.014Z,82.46
2017-11-30T09:22:37.370Z,82.93
2017-11-30T09:23:47.665Z,83.22
2017-11-30T09:24:57.969Z,82.08
2017-11-30T09:26:08.358Z,82.27
2017-11-30T09:27:18.859Z,82.46
2017-11-30T09:28:28.756Z,82.27
2017-11-30T09:29:38.818Z,82.46
2017-11-30T09:30:48.462Z,82.08
2017-11-30T09:31:58.807Z,82.17
2017-11-30T09:33:09.336Z,82.08
2017-11-30T09:34:19.645Z,81.98
2017-11-30T09:35:30.004Z,81.32
2017-11-30T09:36:40.077Z,80.94
2017-11-30T09:37:49.649Z,80.84
2017-11-30T09:39:00.133Z,80.94
2017-11-30T09:40:09.900Z,80.41
2017-11-30T09:41:20.278Z,79.84
2017-11-30T09:42:30.190Z,78.93
2017-11-30T09:43:40.531Z,78.45
2017-11-30T09:44:51.100Z,77.64
2017-11-30T09:46:01.429Z,76.73
2017-11-30T09:47:11.787Z,76.25
2017-11-30T09:48:22.127Z,75.78
2017-11-30T09:49:32.431Z,75.05
2017-11-30T09:50:42.740Z,73.85
2017-11-30T09:51:53.136Z,73.1
2017-11-30T09:53:03.591Z,72.08
2017-11-30T09:54:14.140Z,71.8
2017-11-30T09:55:24.500Z,70.81
2017-11-30T09:56:34.800Z,70.9
2017-11-30T09:57:45.151Z,70.72
2017-11-30T09:58:55.509Z,70.72
2017-11-30T10:00:05.959Z,70.81
2017-11-30T10:01:16.294Z,70.72
2017-11-30T10:02:26.814Z,70.49
2017-11-30T10:03:37.178Z,70.39
2017-11-30T10:04:47.504Z,71.06
2017-11-30T10:05:57.863Z,71.78
2017-11-30T10:07:08.714Z,71.69
2017-11-30T10:08:20.093Z,71.59
2017-11-30T10:09:30.370Z,72.13
2017-11-30T10:10:40.386Z,72.79
2017-11-30T10:11:50.557Z,72.89
2017-11-30T10:13:01.123Z,72.99
2017-11-30T10:14:12.307Z,73.71
2017-11-30T10:15:23.103Z,74.18
2017-11-30T10:16:33.197Z,73.99
2017-11-30T10:17:42.972Z,74.37
2017-11-30T10:18:53.391Z,74.18
2017-11-30T10:20:03.887Z,74.85
2017-11-30T10:21:15.067Z,75.32
2017-11-30T10:22:25.523Z,75.13
2017-11-30T10:23:35.978Z,75.51
2017-11-30T10:24:46.732Z,75.51
2017-11-30T10:25:57.526Z,75.6
2017-11-30T10:27:07.949Z,75.89
2017-11-30T10:28:18.713Z,74.94
2017-11-30T10:29:29.460Z,75.04
2017-11-30T10:30:39.456Z,75.23
2017-11-30T10:31:50.258Z,74.85
2017-11-30T10:33:00.586Z,74.75
2017-11-30T10:34:11.072Z,74.66
2017-11-30T10:35:21.081Z,74.79
2017-11-30T10:36:31.629Z,74.41
2017-11-30T10:37:41.948Z,74.12
2017-11-30T10:38:52.240Z,74.12
2017-11-30T10:40:02.993Z,73.84
2017-11-30T10:41:13.620Z,73.74
2017-11-30T10:42:23.641Z,73.65
2017-11-30T10:43:34.194Z,73.71
2017-11-30T10:44:44.715Z,74.37
2017-11-30T10:45:55.004Z,74.08
2017-11-30T10:47:05.299Z,74.27
2017-11-30T10:48:15.116Z,74.27
2017-11-30T10:49:25.412Z,74.85
2017-11-30T10:50:35.801Z,74.66
2017-11-30T10:51:46.162Z,74.75
2017-11-30T10:52:56.558Z,74.56
2017-11-30T10:54:06.966Z,75.13
2017-11-30T10:55:17.313Z,75.04
2017-11-30T10:56:27.964Z,75
2017-11-30T10:57:37.977Z,75.28
2017-11-30T10:58:47.902Z,75.67
2017-11-30T10:59:57.772Z,75.47
2017-11-30T11:01:08.238Z,75.19
2017-11-30T11:02:18.206Z,75.19
2017-11-30T11:03:28.680Z,75.67
2017-11-30T11:04:38.981Z,75.76
2017-11-30T11:05:49.059Z,75.85
2017-11-30T11:06:59.419Z,76.52
2017-11-30T11:08:08.831Z,76.42
2017-11-30T11:09:18.875Z,76.52
2017-11-30T11:10:29.235Z,76.61
2017-11-30T11:11:39.249Z,76.99
2017-11-30T11:12:49.789Z,76.95
2017-11-30T11:14:00.102Z,77.71
2017-11-30T11:15:10.455Z,77.52
2017-11-30T11:16:20.776Z,77.9
2017-11-30T11:17:30.961Z,77.9
2017-11-30T11:18:41.270Z,77.9
2017-11-30T11:19:51.326Z,78
2017-11-30T11:21:01.629Z,77.81
2017-11-30T11:22:11.940Z,77.9
2017-11-30T11:23:21.963Z,77.9
2017-11-30T11:24:31.596Z,77.9
2017-11-30T11:25:45.436Z,77.9
2017-11-30T11:26:55.664Z,78
2017-11-30T11:28:05.982Z,77.81
2017-11-30T11:29:16.003Z,78
2017-11-30T11:30:26.368Z,78.09
2017-11-30T11:31:36.153Z,77.9
2017-11-30T11:32:46.451Z,77.71
2017-11-30T11:33:56.487Z,77.62
2017-11-30T11:35:06.764Z,77.62
2017-11-30T11:36:17.048Z,77.71
2017-11-30T11:37:27.430Z,77.81
2017-11-30T11:38:37.734Z,78.19
2017-11-30T11:39:48.017Z,78.47
2017-11-30T11:40:58.322Z,78.47
2017-11-30T11:42:08.644Z,78
2017-11-30T11:43:19.170Z,78.09
2017-11-30T11:44:29.759Z,78.19
2017-11-30T11:45:39.664Z,77.9
2017-11-30T11:46:50.309Z,78.75
2017-11-30T11:48:00.328Z,78.66
2017-11-30T11:49:10.378Z,78.66
2017-11-30T11:50:20.700Z,78.47
2017-11-30T11:51:31.012Z,78.66
2017-11-30T11:52:41.338Z,78.38
2017-11-30T11:53:51.693Z,78.66
2017-11-30T11:55:01.467Z,78.09
2017-11-30T11:56:11.851Z,78.19
2017-11-30T11:57:22.707Z,78.38
2017-11-30T11:58:32.995Z,77.9
2017-11-30T11:59:43.022Z,77.94
2017-11-30T12:00:53.318Z,77.56
2017-11-30T12:02:03.654Z,77.37
2017-11-30T12:03:13.876Z,76.99
2017-11-30T12:04:24.220Z,76.71
2017-11-30T12:05:35.135Z,76.9
2017-11-30T12:06:46.725Z,76.99
2017-11-30T12:07:57.707Z,76.9
2017-11-30T12:09:08.029Z,77.09
2017-11-30T12:10:17.836Z,77.18
2017-11-30T12:11:28.391Z,76.71
2017-11-30T12:12:38.733Z,77.09
2017-11-30T12:13:49.872Z,76.99
2017-11-30T12:15:00.021Z,77.18
2017-11-30T12:16:10.334Z,76.42
2017-11-30T12:17:20.192Z,76.52
2017-11-30T12:18:30.371Z,76.8
2017-11-30T12:19:43.311Z,76.32
2017-11-30T12:20:53.385Z,76.32
2017-11-30T12:22:03.939Z,76.52
2017-11-30T12:23:14.306Z,76.42
2017-11-30T12:24:25.029Z,76.52
2017-11-30T12:25:37.237Z,76.32
2017-11-30T12:26:48.334Z,76.8
2017-11-30T12:28:02.736Z,76.32
2017-11-30T12:29:14.902Z,76.52
2017-11-30T12:30:25.378Z,76.04
2017-11-30T12:31:35.608Z,75.85
2017-11-30T12:32:46.657Z,75.95
2017-11-30T12:33:57.759Z,76.42
2017-11-30T12:35:07.971Z,76.04
2017-11-30T12:36:18.050Z,76.04
2017-11-30T12:37:28.955Z,76.04
2017-11-30T12:38:39.671Z,76.04
2017-11-30T12:39:51.460Z,76.14
2017-11-30T12:41:03.319Z,76.32
2017-11-30T12:42:13.640Z,76.61
2017-11-30T12:43:25.004Z,76.32
2017-11-30T12:44:35.598Z,76.42
2017-11-30T12:45:45.693Z,76.32
2017-11-30T12:46:57.625Z,76.32
2017-11-30T12:48:08.871Z,76.52
2017-11-30T12:49:20.776Z,75.95
2017-11-30T12:50:31.344Z,75.95
2017-11-30T12:51:41.842Z,76.14
2017-11-30T12:52:52.161Z,76.23
2017-11-30T12:54:03.342Z,76.32
2017-11-30T12:55:14.953Z,76.42
2017-11-30T12:56:27.570Z,76.32
2017-11-30T12:57:38.390Z,76.52
2017-11-30T12:58:49.320Z,76.14
2017-11-30T13:00:00.354Z,76.32
2017-11-30T13:01:10.788Z,76.32
2017-11-30T13:02:22.281Z,76.32
2017-11-30T13:03:32.931Z,76.61
2017-11-30T13:04:43.216Z,76.32
2017-11-30T13:05:53.499Z,76.71
2017-11-30T13:07:03.569Z,76.71
2017-11-30T13:08:13.885Z,76.9
2017-11-30T13:09:23.946Z,76.9
2017-11-30T13:10:34.230Z,76.71
2017-11-30T13:11:44.193Z,76.86
2017-11-30T13:12:54.458Z,76.76
2017-11-30T13:14:04.741Z,76.9
2017-11-30T13:15:15.048Z,77.37
2017-11-30T13:16:24.951Z,77.75
2017-11-30T13:17:35.246Z,77.52
2017-11-30T13:18:45.574Z,77.52
2017-11-30T13:19:56.103Z,77.47
2017-11-30T13:21:06.542Z,77.56
2017-11-30T13:22:16.554Z,77.37
2017-11-30T13:23:26.749Z,77.75
2017-11-30T13:24:37.042Z,77.75
2017-11-30T13:25:47.407Z,77.66
2017-11-30T13:26:57.692Z,77.37
2017-11-30T13:28:40.048Z,77.37
2017-11-30T13:29:50.132Z,77.37
2017-11-30T13:31:00.159Z,77.47
2017-11-30T13:32:10.264Z,77.56
2017-11-30T13:33:20.578Z,77.28
2017-11-30T13:34:30.934Z,77.47
2017-11-30T13:35:41.367Z,77.56
2017-11-30T13:36:51.734Z,77.47
2017-11-30T13:38:01.582Z,77.47
2017-11-30T13:39:11.982Z,77.47
2017-11-30T13:40:22.287Z,77.47
2017-11-30T13:41:32.296Z,77.47
2017-11-30T13:42:42.727Z,77.75
2017-11-30T13:43:53.021Z,77.75
2017-11-30T13:45:03.501Z,77.84
2017-11-30T13:46:14.837Z,77.75
2017-11-30T13:47:24.634Z,77.94
2017-11-30T13:48:34.907Z,78.03
2017-11-30T13:49:45.053Z,78.03
2017-11-30T13:50:55.272Z,78.03
2017-11-30T13:52:05.561Z,78.13
2017-11-30T13:53:15.829Z,78.13
2017-11-30T13:54:26.109Z,78.51
2017-11-30T13:55:36.502Z,78.51
2017-11-30T13:56:46.803Z,77.94
2017-11-30T13:57:57.139Z,78.03
2017-11-30T13:59:07.169Z,78.8
2017-11-30T14:00:18.455Z,78.51
2017-11-30T14:01:28.503Z,78.8
2017-11-30T14:02:38.850Z,78.7
2017-11-30T14:03:49.198Z,78.8
2017-11-30T14:04:59.702Z,78.89
2017-11-30T14:06:09.662Z,78.42
2017-11-30T14:07:19.696Z,78.8
2017-11-30T14:08:30.252Z,78.75
2017-11-30T14:09:40.553Z,78.47
2017-11-30T14:10:51.054Z,78.75
2017-11-30T14:12:01.565Z,78.95
2017-11-30T14:13:11.940Z,79.08
2017-11-30T14:14:22.221Z,78.85
2017-11-30T14:15:32.543Z,78.61
2017-11-30T14:16:42.886Z,78.61
2017-11-30T14:17:53.424Z,78.51
2017-11-30T14:19:03.734Z,78.56
2017-11-30T14:20:13.665Z,78.56
2017-11-30T14:21:24.150Z,78.7
2017-11-30T14:22:34.495Z,78.66
2017-11-30T14:23:44.802Z,78.47
2017-11-30T14:24:55.134Z,78.28
2017-11-30T14:26:05.487Z,78.66
2017-11-30T14:27:15.744Z,78.66
2017-11-30T14:28:25.657Z,78.56
2017-11-30T14:29:40.347Z,78.75
2017-11-30T14:30:50.691Z,79.23
2017-11-30T14:32:01.011Z,78.95
2017-11-30T14:33:10.999Z,79.33
2017-11-30T14:34:21.014Z,79.33
2017-11-30T14:35:31.429Z,79.23
2017-11-30T14:36:41.476Z,79.71
2017-11-30T14:37:51.501Z,79.71
2017-11-30T14:39:01.534Z,79.23
2017-11-30T14:40:11.549Z,79.61
2017-11-30T14:41:21.917Z,79.8
2017-11-30T14:42:31.673Z,79.8
2017-11-30T14:43:41.984Z,79.33
2017-11-30T14:44:52.306Z,79.14
2017-11-30T14:46:02.233Z,79.14
2017-11-30T14:47:12.508Z,79.23
2017-11-30T14:48:22.767Z,79.8
2017-11-30T14:49:33.099Z,79.71
2017-11-30T14:50:43.464Z,79.42
2017-11-30T14:51:53.784Z,79.9
2017-11-30T14:53:04.082Z,79.42
2017-11-30T14:54:14.398Z,80.18
2017-11-30T14:55:24.434Z,79.99
2017-11-30T14:56:34.735Z,80.46
2017-11-30T14:57:45.020Z,80.37
2017-11-30T14:58:54.833Z,80.37
2017-11-30T15:00:05.163Z,80.27
2017-11-30T15:01:15.803Z,80.18
2017-11-30T15:02:25.711Z,80.65
2017-11-30T15:03:35.980Z,80.46
2017-11-30T15:04:46.279Z,80.56
2017-11-30T15:05:56.594Z,80.27
2017-11-30T15:07:06.946Z,80.08
2017-11-30T15:08:17.313Z,80.08
2017-11-30T15:09:27.838Z,79.99
2017-11-30T15:10:37.642Z,80.37
2017-11-30T15:11:47.952Z,81.04